sensor_id;sensor_type;location;lat;lon;timestamp;P1;durP1;ratioP1;P2;durP2;ratioP2
53533;SDS011;39421;53.204;6.568;2022-10-17T00:01:10;8.87;;;3.53;;
53533;SDS011;39421;53.204;6.568;2022-10-17T00:03:37;8.27;;;3.77;;
53533;SDS011;39421;53.204;6.568;2022-10-17T00:06:04;7.40;;;3.72;;
53533;SDS011;39421;53.204;6.568;2022-10-17T00:08:35;7.70;;;3.78;;
53533;SDS011;39421;53.204;6.568;2022-10-17T00:11:21;7.85;;;3.67;;
53533;SDS011;39421;53.204;6.568;2022-10-17T00:13:48;11.00;;;5.50;;
53533;SDS011;39421;53.204;6.568;2022-10-17T00:16:18;7.68;;;4.47;;
53533;SDS011;39421;53.204;6.568;2022-10-17T00:18:51;8.50;;;4.80;;
53533;SDS011;39421;53.204;6.568;2022-10-17T00:21:17;14.88;;;7.15;;
53533;SDS011;39421;53.204;6.568;2022-10-17T00:23:43;13.10;;;7.87;;
53533;SDS011;39421;53.204;6.568;2022-10-17T00:26:10;18.65;;;10.15;;
53533;SDS011;39421;53.204;6.568;2022-10-17T00:28:35;18.85;;;11.65;;
53533;SDS011;39421;53.204;6.568;2022-10-17T00:31:04;18.98;;;11.57;;
53533;SDS011;39421;53.204;6.568;2022-10-17T00:33:31;17.85;;;11.35;;
53533;SDS011;39421;53.204;6.568;2022-10-17T00:36:06;14.63;;;10.02;;
53533;SDS011;39421;53.204;6.568;2022-10-17T00:38:34;16.60;;;9.05;;
53533;SDS011;39421;53.204;6.568;2022-10-17T00:41:01;13.88;;;9.00;;
53533;SDS011;39421;53.204;6.568;2022-10-17T00:43:27;14.57;;;8.57;;
53533;SDS011;39421;53.204;6.568;2022-10-17T00:45:54;16.23;;;8.68;;
53533;SDS011;39421;53.204;6.568;2022-10-17T00:48:20;15.02;;;9.40;;
53533;SDS011;39421;53.204;6.568;2022-10-17T00:50:48;15.13;;;9.45;;
53533;SDS011;39421;53.204;6.568;2022-10-17T00:53:15;13.25;;;8.75;;
53533;SDS011;39421;53.204;6.568;2022-10-17T00:55:49;13.30;;;8.60;;
53533;SDS011;39421;53.204;6.568;2022-10-17T00:58:17;13.57;;;8.73;;
53533;SDS011;39421;53.204;6.568;2022-10-17T01:00:44;13.45;;;8.23;;
53533;SDS011;39421;53.204;6.568;2022-10-17T01:03:11;13.87;;;8.13;;
53533;SDS011;39421;53.204;6.568;2022-10-17T01:05:37;11.93;;;7.83;;
53533;SDS011;39421;53.204;6.568;2022-10-17T01:08:04;12.30;;;6.97;;
53533;SDS011;39421;53.204;6.568;2022-10-17T01:10:32;13.17;;;6.43;;
53533;SDS011;39421;53.204;6.568;2022-10-17T01:18:48;9.98;;;6.35;;
53533;SDS011;39421;53.204;6.568;2022-10-17T01:29:32;9.27;;;5.15;;
53533;SDS011;39421;53.204;6.568;2022-10-17T01:34:32;10.80;;;4.85;;
53533;SDS011;39421;53.204;6.568;2022-10-17T01:37:05;8.60;;;4.75;;
53533;SDS011;39421;53.204;6.568;2022-10-17T01:39:41;9.82;;;4.30;;
53533;SDS011;39421;53.204;6.568;2022-10-17T01:42:17;9.57;;;4.50;;
53533;SDS011;39421;53.204;6.568;2022-10-17T01:45:05;10.90;;;4.88;;
53533;SDS011;39421;53.204;6.568;2022-10-17T01:47:37;6.80;;;4.22;;
53533;SDS011;39421;53.204;6.568;2022-10-17T01:50:07;7.10;;;4.15;;
53533;SDS011;39421;53.204;6.568;2022-10-17T01:52:46;7.80;;;3.90;;
53533;SDS011;39421;53.204;6.568;2022-10-17T01:55:22;8.40;;;4.27;;
53533;SDS011;39421;53.204;6.568;2022-10-17T01:57:56;6.95;;;4.22;;
53533;SDS011;39421;53.204;6.568;2022-10-17T02:00:27;7.45;;;4.18;;
53533;SDS011;39421;53.204;6.568;2022-10-17T02:02:59;8.07;;;4.22;;
53533;SDS011;39421;53.204;6.568;2022-10-17T02:05:29;5.00;;;4.07;;
53533;SDS011;39421;53.204;6.568;2022-10-17T02:07:59;7.80;;;4.50;;
53533;SDS011;39421;53.204;6.568;2022-10-17T02:10:35;9.15;;;4.70;;
53533;SDS011;39421;53.204;6.568;2022-10-17T02:13:30;7.80;;;4.50;;
53533;SDS011;39421;53.204;6.568;2022-10-17T02:19:01;7.47;;;4.18;;
53533;SDS011;39421;53.204;6.568;2022-10-17T02:21:46;6.13;;;3.92;;
53533;SDS011;39421;53.204;6.568;2022-10-17T02:27:04;6.95;;;4.40;;
53533;SDS011;39421;53.204;6.568;2022-10-17T02:29:38;7.75;;;4.30;;
53533;SDS011;39421;53.204;6.568;2022-10-17T02:32:18;7.75;;;4.38;;
53533;SDS011;39421;53.204;6.568;2022-10-17T02:34:50;5.63;;;4.13;;
53533;SDS011;39421;53.204;6.568;2022-10-17T02:37:20;8.05;;;4.70;;
53533;SDS011;39421;53.204;6.568;2022-10-17T02:39:49;5.93;;;4.30;;
53533;SDS011;39421;53.204;6.568;2022-10-17T02:42:15;7.03;;;4.30;;
53533;SDS011;39421;53.204;6.568;2022-10-17T02:44:43;7.68;;;4.55;;
53533;SDS011;39421;53.204;6.568;2022-10-17T02:47:12;8.77;;;4.60;;
53533;SDS011;39421;53.204;6.568;2022-10-17T02:50:10;6.25;;;4.85;;
53533;SDS011;39421;53.204;6.568;2022-10-17T02:52:38;6.57;;;4.40;;
53533;SDS011;39421;53.204;6.568;2022-10-17T02:55:20;8.25;;;4.68;;
53533;SDS011;39421;53.204;6.568;2022-10-17T02:57:55;6.57;;;4.22;;
53533;SDS011;39421;53.204;6.568;2022-10-17T03:00:31;6.32;;;4.70;;
53533;SDS011;39421;53.204;6.568;2022-10-17T03:02:58;5.63;;;4.78;;
53533;SDS011;39421;53.204;6.568;2022-10-17T03:05:25;6.57;;;4.60;;
53533;SDS011;39421;53.204;6.568;2022-10-17T03:07:54;8.27;;;5.20;;
53533;SDS011;39421;53.204;6.568;2022-10-17T03:10:21;8.20;;;5.22;;
53533;SDS011;39421;53.204;6.568;2022-10-17T03:12:47;6.47;;;4.93;;
53533;SDS011;39421;53.204;6.568;2022-10-17T03:15:13;8.98;;;5.20;;
53533;SDS011;39421;53.204;6.568;2022-10-17T03:17:38;6.10;;;5.03;;
53533;SDS011;39421;53.204;6.568;2022-10-17T03:20:04;7.15;;;4.95;;
53533;SDS011;39421;53.204;6.568;2022-10-17T03:22:31;6.60;;;5.38;;
53533;SDS011;39421;53.204;6.568;2022-10-17T03:24:57;8.27;;;5.78;;
53533;SDS011;39421;53.204;6.568;2022-10-17T03:27:23;7.63;;;5.50;;
53533;SDS011;39421;53.204;6.568;2022-10-17T03:29:48;7.73;;;5.60;;
53533;SDS011;39421;53.204;6.568;2022-10-17T03:32:14;7.30;;;5.83;;
53533;SDS011;39421;53.204;6.568;2022-10-17T03:34:40;7.57;;;5.73;;
53533;SDS011;39421;53.204;6.568;2022-10-17T03:37:05;7.80;;;5.93;;
53533;SDS011;39421;53.204;6.568;2022-10-17T03:39:31;6.90;;;5.80;;
53533;SDS011;39421;53.204;6.568;2022-10-17T03:41:57;8.17;;;5.83;;
53533;SDS011;39421;53.204;6.568;2022-10-17T03:44:22;7.20;;;6.10;;
53533;SDS011;39421;53.204;6.568;2022-10-17T03:46:48;8.38;;;6.05;;
53533;SDS011;39421;53.204;6.568;2022-10-17T03:49:14;7.20;;;6.10;;
53533;SDS011;39421;53.204;6.568;2022-10-17T03:51:39;9.45;;;6.55;;
53533;SDS011;39421;53.204;6.568;2022-10-17T03:54:05;9.45;;;6.45;;
53533;SDS011;39421;53.204;6.568;2022-10-17T03:56:31;7.80;;;6.13;;
53533;SDS011;39421;53.204;6.568;2022-10-17T03:58:56;10.13;;;6.72;;
53533;SDS011;39421;53.204;6.568;2022-10-17T04:01:22;8.77;;;6.70;;
53533;SDS011;39421;53.204;6.568;2022-10-17T04:03:51;9.07;;;6.82;;
53533;SDS011;39421;53.204;6.568;2022-10-17T04:06:19;9.80;;;6.70;;
53533;SDS011;39421;53.204;6.568;2022-10-17T04:08:45;8.23;;;6.85;;
53533;SDS011;39421;53.204;6.568;2022-10-17T04:11:13;8.02;;;6.80;;
53533;SDS011;39421;53.204;6.568;2022-10-17T04:13:39;9.45;;;7.10;;
53533;SDS011;39421;53.204;6.568;2022-10-17T04:16:06;9.10;;;7.28;;
53533;SDS011;39421;53.204;6.568;2022-10-17T04:18:36;9.43;;;7.30;;
53533;SDS011;39421;53.204;6.568;2022-10-17T04:21:02;8.17;;;6.77;;
53533;SDS011;39421;53.204;6.568;2022-10-17T04:23:29;8.07;;;7.07;;
53533;SDS011;39421;53.204;6.568;2022-10-17T04:25:55;8.43;;;6.90;;
53533;SDS011;39421;53.204;6.568;2022-10-17T04:28:22;8.55;;;7.10;;
53533;SDS011;39421;53.204;6.568;2022-10-17T04:31:22;10.13;;;7.40;;
53533;SDS011;39421;53.204;6.568;2022-10-17T04:33:40;8.73;;;7.35;;
53533;SDS011;39421;53.204;6.568;2022-10-17T04:36:09;8.75;;;7.10;;
53533;SDS011;39421;53.204;6.568;2022-10-17T04:38:36;9.50;;;7.60;;
53533;SDS011;39421;53.204;6.568;2022-10-17T04:41:02;10.75;;;8.02;;
53533;SDS011;39421;53.204;6.568;2022-10-17T04:43:30;10.50;;;7.60;;
53533;SDS011;39421;53.204;6.568;2022-10-17T04:45:57;10.20;;;7.87;;
53533;SDS011;39421;53.204;6.568;2022-10-17T04:48:23;10.32;;;8.30;;
53533;SDS011;39421;53.204;6.568;2022-10-17T04:50:52;9.73;;;8.25;;
53533;SDS011;39421;53.204;6.568;2022-10-17T04:53:22;10.93;;;8.23;;
53533;SDS011;39421;53.204;6.568;2022-10-17T04:55:48;10.65;;;8.13;;
53533;SDS011;39421;53.204;6.568;2022-10-17T04:58:14;12.53;;;8.57;;
53533;SDS011;39421;53.204;6.568;2022-10-17T05:00:40;10.60;;;8.20;;
53533;SDS011;39421;53.204;6.568;2022-10-17T05:03:05;11.33;;;8.50;;
53533;SDS011;39421;53.204;6.568;2022-10-17T05:05:31;10.63;;;8.30;;
53533;SDS011;39421;53.204;6.568;2022-10-17T05:07:57;9.70;;;8.20;;
53533;SDS011;39421;53.204;6.568;2022-10-17T05:10:23;11.53;;;8.63;;
53533;SDS011;39421;53.204;6.568;2022-10-17T05:12:49;10.80;;;8.37;;
53533;SDS011;39421;53.204;6.568;2022-10-17T05:15:15;10.82;;;8.70;;
53533;SDS011;39421;53.204;6.568;2022-10-17T05:17:41;11.27;;;8.50;;
53533;SDS011;39421;53.204;6.568;2022-10-17T05:20:07;10.10;;;8.43;;
53533;SDS011;39421;53.204;6.568;2022-10-17T05:22:33;9.90;;;8.13;;
53533;SDS011;39421;53.204;6.568;2022-10-17T05:24:59;10.65;;;8.85;;
53533;SDS011;39421;53.204;6.568;2022-10-17T05:27:24;11.30;;;8.77;;
53533;SDS011;39421;53.204;6.568;2022-10-17T05:29:50;10.63;;;8.88;;
53533;SDS011;39421;53.204;6.568;2022-10-17T05:32:16;12.55;;;9.35;;
53533;SDS011;39421;53.204;6.568;2022-10-17T05:34:41;11.43;;;9.25;;
53533;SDS011;39421;53.204;6.568;2022-10-17T05:37:07;11.02;;;9.00;;
53533;SDS011;39421;53.204;6.568;2022-10-17T05:39:33;12.57;;;9.52;;
53533;SDS011;39421;53.204;6.568;2022-10-17T05:41:59;11.70;;;9.38;;
53533;SDS011;39421;53.204;6.568;2022-10-17T05:44:24;11.83;;;9.60;;
53533;SDS011;39421;53.204;6.568;2022-10-17T05:46:50;12.77;;;9.13;;
53533;SDS011;39421;53.204;6.568;2022-10-17T05:49:15;11.03;;;9.37;;
53533;SDS011;39421;53.204;6.568;2022-10-17T05:51:42;11.75;;;9.82;;
53533;SDS011;39421;53.204;6.568;2022-10-17T05:54:08;11.95;;;10.13;;
53533;SDS011;39421;53.204;6.568;2022-10-17T05:56:33;14.18;;;10.23;;
53533;SDS011;39421;53.204;6.568;2022-10-17T05:59:00;12.33;;;9.90;;
53533;SDS011;39421;53.204;6.568;2022-10-17T06:01:26;12.82;;;9.80;;
53533;SDS011;39421;53.204;6.568;2022-10-17T06:03:52;13.10;;;9.82;;
53533;SDS011;39421;53.204;6.568;2022-10-17T06:06:18;11.97;;;9.73;;
53533;SDS011;39421;53.204;6.568;2022-10-17T06:08:44;12.13;;;9.80;;
53533;SDS011;39421;53.204;6.568;2022-10-17T06:11:11;14.02;;;10.40;;
53533;SDS011;39421;53.204;6.568;2022-10-17T06:13:37;14.07;;;10.07;;
53533;SDS011;39421;53.204;6.568;2022-10-17T06:16:03;14.02;;;10.30;;
53533;SDS011;39421;53.204;6.568;2022-10-17T06:18:30;12.70;;;10.23;;
53533;SDS011;39421;53.204;6.568;2022-10-17T06:21:06;13.30;;;10.32;;
53533;SDS011;39421;53.204;6.568;2022-10-17T06:23:33;13.85;;;10.00;;
53533;SDS011;39421;53.204;6.568;2022-10-17T06:26:00;12.45;;;10.02;;
53533;SDS011;39421;53.204;6.568;2022-10-17T06:28:26;14.40;;;10.77;;
53533;SDS011;39421;53.204;6.568;2022-10-17T06:30:52;12.73;;;10.05;;
53533;SDS011;39421;53.204;6.568;2022-10-17T06:33:18;12.40;;;10.48;;
53533;SDS011;39421;53.204;6.568;2022-10-17T06:35:52;14.40;;;10.57;;
53533;SDS011;39421;53.204;6.568;2022-10-17T06:38:18;11.68;;;9.88;;
53533;SDS011;39421;53.204;6.568;2022-10-17T06:40:44;13.90;;;10.88;;
53533;SDS011;39421;53.204;6.568;2022-10-17T06:43:10;13.05;;;10.35;;
53533;SDS011;39421;53.204;6.568;2022-10-17T06:45:37;12.50;;;9.87;;
53533;SDS011;39421;53.204;6.568;2022-10-17T06:48:04;12.70;;;10.07;;
53533;SDS011;39421;53.204;6.568;2022-10-17T06:50:30;13.70;;;10.23;;
53533;SDS011;39421;53.204;6.568;2022-10-17T06:52:55;12.32;;;10.00;;
53533;SDS011;39421;53.204;6.568;2022-10-17T06:55:21;12.75;;;10.57;;
53533;SDS011;39421;53.204;6.568;2022-10-17T06:57:47;13.52;;;10.27;;
53533;SDS011;39421;53.204;6.568;2022-10-17T07:00:13;15.02;;;10.18;;
53533;SDS011;39421;53.204;6.568;2022-10-17T07:02:38;14.70;;;10.07;;
53533;SDS011;39421;53.204;6.568;2022-10-17T07:05:06;14.15;;;10.38;;
53533;SDS011;39421;53.204;6.568;2022-10-17T07:07:32;17.05;;;10.77;;
53533;SDS011;39421;53.204;6.568;2022-10-17T07:09:57;12.30;;;9.55;;
53533;SDS011;39421;53.204;6.568;2022-10-17T07:12:23;13.32;;;9.90;;
53533;SDS011;39421;53.204;6.568;2022-10-17T07:14:49;15.95;;;10.55;;
53533;SDS011;39421;53.204;6.568;2022-10-17T07:17:15;13.67;;;9.93;;
53533;SDS011;39421;53.204;6.568;2022-10-17T07:19:42;13.23;;;9.80;;
53533;SDS011;39421;53.204;6.568;2022-10-17T07:22:08;13.15;;;9.38;;
53533;SDS011;39421;53.204;6.568;2022-10-17T07:24:35;14.02;;;10.27;;
53533;SDS011;39421;53.204;6.568;2022-10-17T07:27:01;15.32;;;9.80;;
53533;SDS011;39421;53.204;6.568;2022-10-17T07:29:27;13.18;;;9.65;;
53533;SDS011;39421;53.204;6.568;2022-10-17T07:31:52;13.45;;;9.20;;
53533;SDS011;39421;53.204;6.568;2022-10-17T07:34:18;12.23;;;9.40;;
53533;SDS011;39421;53.204;6.568;2022-10-17T07:36:44;11.93;;;9.38;;
53533;SDS011;39421;53.204;6.568;2022-10-17T07:39:10;11.40;;;9.15;;
53533;SDS011;39421;53.204;6.568;2022-10-17T07:41:36;11.20;;;8.67;;
53533;SDS011;39421;53.204;6.568;2022-10-17T07:44:01;14.97;;;8.83;;
53533;SDS011;39421;53.204;6.568;2022-10-17T07:46:27;12.20;;;9.30;;
53533;SDS011;39421;53.204;6.568;2022-10-17T07:48:53;12.07;;;9.07;;
53533;SDS011;39421;53.204;6.568;2022-10-17T07:51:19;11.63;;;8.70;;
53533;SDS011;39421;53.204;6.568;2022-10-17T07:53:46;11.85;;;8.77;;
53533;SDS011;39421;53.204;6.568;2022-10-17T07:56:12;12.73;;;8.90;;
53533;SDS011;39421;53.204;6.568;2022-10-17T07:58:37;10.25;;;8.00;;
53533;SDS011;39421;53.204;6.568;2022-10-17T08:01:04;11.40;;;8.77;;
53533;SDS011;39421;53.204;6.568;2022-10-17T08:03:32;10.57;;;8.47;;
53533;SDS011;39421;53.204;6.568;2022-10-17T08:05:58;11.38;;;8.32;;
53533;SDS011;39421;53.204;6.568;2022-10-17T08:08:25;11.43;;;8.27;;
53533;SDS011;39421;53.204;6.568;2022-10-17T08:10:50;11.10;;;7.95;;
53533;SDS011;39421;53.204;6.568;2022-10-17T08:13:18;12.77;;;8.63;;
53533;SDS011;39421;53.204;6.568;2022-10-17T08:15:46;11.23;;;7.55;;
53533;SDS011;39421;53.204;6.568;2022-10-17T08:18:12;10.43;;;7.22;;
53533;SDS011;39421;53.204;6.568;2022-10-17T08:20:42;12.10;;;7.35;;
53533;SDS011;39421;53.204;6.568;2022-10-17T08:23:08;10.80;;;7.83;;
53533;SDS011;39421;53.204;6.568;2022-10-17T08:25:37;10.60;;;7.47;;
53533;SDS011;39421;53.204;6.568;2022-10-17T08:28:03;9.93;;;7.30;;
53533;SDS011;39421;53.204;6.568;2022-10-17T08:30:29;11.80;;;8.05;;
53533;SDS011;39421;53.204;6.568;2022-10-17T08:32:55;10.48;;;7.70;;
53533;SDS011;39421;53.204;6.568;2022-10-17T08:35:21;11.00;;;7.80;;
53533;SDS011;39421;53.204;6.568;2022-10-17T08:37:47;9.50;;;7.15;;
53533;SDS011;39421;53.204;6.568;2022-10-17T08:40:16;9.47;;;7.13;;
53533;SDS011;39421;53.204;6.568;2022-10-17T08:46:00;12.95;;;7.80;;
53533;SDS011;39421;53.204;6.568;2022-10-17T08:48:30;9.73;;;7.50;;
53533;SDS011;39421;53.204;6.568;2022-10-17T08:51:10;11.02;;;7.90;;
53533;SDS011;39421;53.204;6.568;2022-10-17T08:54:01;10.63;;;7.55;;
53533;SDS011;39421;53.204;6.568;2022-10-17T08:56:45;10.05;;;7.78;;
53533;SDS011;39421;53.204;6.568;2022-10-17T08:59:17;11.95;;;7.85;;
53533;SDS011;39421;53.204;6.568;2022-10-17T09:01:49;10.43;;;7.30;;
53533;SDS011;39421;53.204;6.568;2022-10-17T09:07:02;10.27;;;7.63;;
53533;SDS011;39421;53.204;6.568;2022-10-17T09:09:41;12.27;;;7.90;;
53533;SDS011;39421;53.204;6.568;2022-10-17T09:17:52;9.82;;;7.22;;
53533;SDS011;39421;53.204;6.568;2022-10-17T09:20:52;11.52;;;7.10;;
53533;SDS011;39421;53.204;6.568;2022-10-17T09:23:20;8.70;;;6.57;;
53533;SDS011;39421;53.204;6.568;2022-10-17T09:25:50;10.53;;;6.70;;
53533;SDS011;39421;53.204;6.568;2022-10-17T09:28:29;9.15;;;6.40;;
53533;SDS011;39421;53.204;6.568;2022-10-17T09:31:02;10.38;;;6.72;;
53533;SDS011;39421;53.204;6.568;2022-10-17T09:33:33;11.05;;;7.07;;
53533;SDS011;39421;53.204;6.568;2022-10-17T09:36:04;12.57;;;7.13;;
53533;SDS011;39421;53.204;6.568;2022-10-17T09:38:38;12.65;;;7.10;;
53533;SDS011;39421;53.204;6.568;2022-10-17T09:41:12;13.20;;;7.30;;
53533;SDS011;39421;53.204;6.568;2022-10-17T09:43:43;11.32;;;6.93;;
53533;SDS011;39421;53.204;6.568;2022-10-17T09:46:11;11.23;;;7.22;;
53533;SDS011;39421;53.204;6.568;2022-10-17T09:49:02;10.20;;;6.90;;
53533;SDS011;39421;53.204;6.568;2022-10-17T09:51:36;11.85;;;7.05;;
53533;SDS011;39421;53.204;6.568;2022-10-17T09:54:03;9.38;;;6.78;;
53533;SDS011;39421;53.204;6.568;2022-10-17T09:57:03;9.95;;;7.25;;
53533;SDS011;39421;53.204;6.568;2022-10-17T10:02:13;9.23;;;7.00;;
53533;SDS011;39421;53.204;6.568;2022-10-17T10:04:55;9.77;;;7.20;;
53533;SDS011;39421;53.204;6.568;2022-10-17T10:07:23;9.95;;;7.55;;
53533;SDS011;39421;53.204;6.568;2022-10-17T10:09:50;10.90;;;7.70;;
53533;SDS011;39421;53.204;6.568;2022-10-17T10:14:48;11.90;;;8.02;;
53533;SDS011;39421;53.204;6.568;2022-10-17T10:19:57;12.27;;;8.32;;
53533;SDS011;39421;53.204;6.568;2022-10-17T10:22:24;13.00;;;8.13;;
53533;SDS011;39421;53.204;6.568;2022-10-17T10:27:51;11.40;;;8.63;;
53533;SDS011;39421;53.204;6.568;2022-10-17T10:30:20;10.93;;;8.93;;
53533;SDS011;39421;53.204;6.568;2022-10-17T10:32:53;11.93;;;8.80;;
53533;SDS011;39421;53.204;6.568;2022-10-17T10:35:22;11.98;;;8.50;;
53533;SDS011;39421;53.204;6.568;2022-10-17T10:37:54;12.40;;;8.70;;
53533;SDS011;39421;53.204;6.568;2022-10-17T10:40:24;12.10;;;8.55;;
53533;SDS011;39421;53.204;6.568;2022-10-17T10:43:01;10.47;;;8.43;;
53533;SDS011;39421;53.204;6.568;2022-10-17T10:48:01;10.95;;;8.30;;
53533;SDS011;39421;53.204;6.568;2022-10-17T10:50:37;12.25;;;9.00;;
53533;SDS011;39421;53.204;6.568;2022-10-17T10:58:53;11.68;;;9.18;;
53533;SDS011;39421;53.204;6.568;2022-10-17T11:01:29;10.95;;;8.57;;
53533;SDS011;39421;53.204;6.568;2022-10-17T11:09:41;12.33;;;9.47;;
53533;SDS011;39421;53.204;6.568;2022-10-17T11:12:32;11.43;;;8.15;;
53533;SDS011;39421;53.204;6.568;2022-10-17T11:17:59;13.27;;;9.68;;
53533;SDS011;39421;53.204;6.568;2022-10-17T11:20:43;11.55;;;9.27;;
53533;SDS011;39421;53.204;6.568;2022-10-17T11:26:15;11.18;;;8.95;;
53533;SDS011;39421;53.204;6.568;2022-10-17T11:28:56;11.30;;;8.98;;
53533;SDS011;39421;53.204;6.568;2022-10-17T11:31:25;15.27;;;9.57;;
53533;SDS011;39421;53.204;6.568;2022-10-17T11:33:59;16.85;;;9.75;;
53533;SDS011;39421;53.204;6.568;2022-10-17T11:36:33;11.13;;;9.15;;
53533;SDS011;39421;53.204;6.568;2022-10-17T11:39:02;11.85;;;8.77;;
53533;SDS011;39421;53.204;6.568;2022-10-17T11:41:41;14.15;;;9.40;;
53533;SDS011;39421;53.204;6.568;2022-10-17T11:49:49;12.15;;;7.85;;
53533;SDS011;39421;53.204;6.568;2022-10-17T11:54:51;9.60;;;6.75;;
53533;SDS011;39421;53.204;6.568;2022-10-17T12:00:21;9.73;;;7.00;;
53533;SDS011;39421;53.204;6.568;2022-10-17T12:06:12;8.57;;;7.03;;
53533;SDS011;39421;53.204;6.568;2022-10-17T12:09:01;11.45;;;7.30;;
53533;SDS011;39421;53.204;6.568;2022-10-17T12:11:55;8.32;;;6.82;;
53533;SDS011;39421;53.204;6.568;2022-10-17T12:14:35;8.07;;;6.65;;
53533;SDS011;39421;53.204;6.568;2022-10-17T12:17:05;10.88;;;6.38;;
53533;SDS011;39421;53.204;6.568;2022-10-17T12:22:48;8.13;;;6.27;;
53533;SDS011;39421;53.204;6.568;2022-10-17T12:25:29;7.88;;;6.22;;
53533;SDS011;39421;53.204;6.568;2022-10-17T12:30:54;8.75;;;6.40;;
53533;SDS011;39421;53.204;6.568;2022-10-17T12:33:30;9.98;;;7.10;;
53533;SDS011;39421;53.204;6.568;2022-10-17T12:36:35;9.68;;;6.50;;
53533;SDS011;39421;53.204;6.568;2022-10-17T12:42:12;8.65;;;6.13;;
53533;SDS011;39421;53.204;6.568;2022-10-17T12:46:49;7.65;;;5.47;;
53533;SDS011;39421;53.204;6.568;2022-10-17T12:49:42;8.20;;;5.35;;
53533;SDS011;39421;53.204;6.568;2022-10-17T12:54:59;6.65;;;4.53;;
53533;SDS011;39421;53.204;6.568;2022-10-17T12:57:34;6.85;;;4.90;;
53533;SDS011;39421;53.204;6.568;2022-10-17T13:03:00;5.72;;;4.30;;
53533;SDS011;39421;53.204;6.568;2022-10-17T13:05:41;5.90;;;4.10;;
53533;SDS011;39421;53.204;6.568;2022-10-17T13:08:14;6.10;;;4.32;;
53533;SDS011;39421;53.204;6.568;2022-10-17T13:10:50;6.75;;;4.13;;
53533;SDS011;39421;53.204;6.568;2022-10-17T13:13:18;5.22;;;4.13;;
53533;SDS011;39421;53.204;6.568;2022-10-17T13:15:51;4.83;;;4.07;;
53533;SDS011;39421;53.204;6.568;2022-10-17T13:18:25;5.55;;;4.32;;
53533;SDS011;39421;53.204;6.568;2022-10-17T13:20:56;6.50;;;4.57;;
53533;SDS011;39421;53.204;6.568;2022-10-17T13:23:36;6.47;;;4.40;;
53533;SDS011;39421;53.204;6.568;2022-10-17T13:26:06;5.05;;;4.07;;
53533;SDS011;39421;53.204;6.568;2022-10-17T13:28:41;8.02;;;4.90;;
53533;SDS011;39421;53.204;6.568;2022-10-17T13:31:22;6.97;;;4.38;;
53533;SDS011;39421;53.204;6.568;2022-10-17T13:33:54;6.20;;;4.20;;
53533;SDS011;39421;53.204;6.568;2022-10-17T13:36:21;6.45;;;4.32;;
53533;SDS011;39421;53.204;6.568;2022-10-17T13:38:47;7.03;;;5.00;;
53533;SDS011;39421;53.204;6.568;2022-10-17T13:41:14;6.70;;;4.47;;
53533;SDS011;39421;53.204;6.568;2022-10-17T13:43:42;6.03;;;4.77;;
53533;SDS011;39421;53.204;6.568;2022-10-17T13:46:11;8.60;;;4.80;;
53533;SDS011;39421;53.204;6.568;2022-10-17T13:48:47;5.75;;;4.03;;
53533;SDS011;39421;53.204;6.568;2022-10-17T13:51:13;6.57;;;4.27;;
53533;SDS011;39421;53.204;6.568;2022-10-17T13:53:39;5.60;;;4.10;;
53533;SDS011;39421;53.204;6.568;2022-10-17T13:56:24;5.22;;;3.72;;
53533;SDS011;39421;53.204;6.568;2022-10-17T13:58:52;5.35;;;3.50;;
53533;SDS011;39421;53.204;6.568;2022-10-17T14:01:24;5.57;;;3.53;;
53533;SDS011;39421;53.204;6.568;2022-10-17T14:03:51;5.10;;;2.90;;
53533;SDS011;39421;53.204;6.568;2022-10-17T14:08:56;4.97;;;3.00;;
53533;SDS011;39421;53.204;6.568;2022-10-17T14:11:40;4.40;;;2.58;;
53533;SDS011;39421;53.204;6.568;2022-10-17T14:14:22;5.70;;;2.80;;
53533;SDS011;39421;53.204;6.568;2022-10-17T14:16:50;4.68;;;2.78;;
53533;SDS011;39421;53.204;6.568;2022-10-17T14:21:53;3.70;;;2.80;;
53533;SDS011;39421;53.204;6.568;2022-10-17T14:26:47;6.67;;;3.00;;
53533;SDS011;39421;53.204;6.568;2022-10-17T14:29:24;5.63;;;3.03;;
53533;SDS011;39421;53.204;6.568;2022-10-17T14:31:56;4.45;;;2.88;;
53533;SDS011;39421;53.204;6.568;2022-10-17T14:34:34;4.27;;;2.90;;
53533;SDS011;39421;53.204;6.568;2022-10-17T14:37:02;5.53;;;3.17;;
53533;SDS011;39421;53.204;6.568;2022-10-17T14:39:34;5.40;;;3.28;;
53533;SDS011;39421;53.204;6.568;2022-10-17T14:41:59;3.70;;;2.88;;
53533;SDS011;39421;53.204;6.568;2022-10-17T14:44:29;5.43;;;3.17;;
53533;SDS011;39421;53.204;6.568;2022-10-17T14:47:04;5.20;;;2.97;;
53533;SDS011;39421;53.204;6.568;2022-10-17T14:54:57;5.85;;;3.83;;
53533;SDS011;39421;53.204;6.568;2022-10-17T14:57:26;6.13;;;3.58;;
53533;SDS011;39421;53.204;6.568;2022-10-17T14:59:58;5.63;;;3.15;;
53533;SDS011;39421;53.204;6.568;2022-10-17T15:02:25;6.22;;;3.65;;
53533;SDS011;39421;53.204;6.568;2022-10-17T15:04:52;4.93;;;3.38;;
53533;SDS011;39421;53.204;6.568;2022-10-17T15:07:17;6.22;;;3.47;;
53533;SDS011;39421;53.204;6.568;2022-10-17T15:09:46;5.80;;;3.70;;
53533;SDS011;39421;53.204;6.568;2022-10-17T15:12:16;6.28;;;3.50;;
53533;SDS011;39421;53.204;6.568;2022-10-17T15:14:44;5.28;;;3.30;;
53533;SDS011;39421;53.204;6.568;2022-10-17T15:17:13;5.57;;;3.45;;
53533;SDS011;39421;53.204;6.568;2022-10-17T15:19:42;6.32;;;3.30;;
53533;SDS011;39421;53.204;6.568;2022-10-17T15:22:08;5.75;;;3.13;;
53533;SDS011;39421;53.204;6.568;2022-10-17T15:24:34;6.63;;;3.30;;
53533;SDS011;39421;53.204;6.568;2022-10-17T15:26:59;5.90;;;3.15;;
53533;SDS011;39421;53.204;6.568;2022-10-17T15:29:25;5.32;;;2.88;;
53533;SDS011;39421;53.204;6.568;2022-10-17T15:31:51;5.20;;;2.90;;
53533;SDS011;39421;53.204;6.568;2022-10-17T15:34:17;4.57;;;3.00;;
53533;SDS011;39421;53.204;6.568;2022-10-17T15:36:48;4.13;;;2.73;;
53533;SDS011;39421;53.204;6.568;2022-10-17T15:39:17;4.03;;;2.58;;
53533;SDS011;39421;53.204;6.568;2022-10-17T15:41:43;4.53;;;2.70;;
53533;SDS011;39421;53.204;6.568;2022-10-17T15:44:09;4.53;;;2.88;;
53533;SDS011;39421;53.204;6.568;2022-10-17T15:46:35;4.35;;;2.50;;
53533;SDS011;39421;53.204;6.568;2022-10-17T15:49:05;5.10;;;2.75;;
53533;SDS011;39421;53.204;6.568;2022-10-17T15:51:34;5.97;;;2.80;;
53533;SDS011;39421;53.204;6.568;2022-10-17T15:54:00;5.82;;;2.75;;
53533;SDS011;39421;53.204;6.568;2022-10-17T15:56:27;3.70;;;2.70;;
53533;SDS011;39421;53.204;6.568;2022-10-17T15:58:54;4.13;;;2.53;;
53533;SDS011;39421;53.204;6.568;2022-10-17T16:01:21;4.97;;;2.97;;
53533;SDS011;39421;53.204;6.568;2022-10-17T16:03:49;6.75;;;2.75;;
53533;SDS011;39421;53.204;6.568;2022-10-17T16:06:16;4.18;;;2.47;;
53533;SDS011;39421;53.204;6.568;2022-10-17T16:08:44;4.30;;;2.60;;
53533;SDS011;39421;53.204;6.568;2022-10-17T16:11:34;4.88;;;2.88;;
53533;SDS011;39421;53.204;6.568;2022-10-17T16:14:04;6.47;;;3.03;;
53533;SDS011;39421;53.204;6.568;2022-10-17T16:16:34;5.03;;;3.00;;
53533;SDS011;39421;53.204;6.568;2022-10-17T16:18:59;6.10;;;3.42;;
53533;SDS011;39421;53.204;6.568;2022-10-17T16:21:26;4.75;;;3.22;;
53533;SDS011;39421;53.204;6.568;2022-10-17T16:23:54;7.07;;;3.17;;
53533;SDS011;39421;53.204;6.568;2022-10-17T16:26:20;5.30;;;3.13;;
53533;SDS011;39421;53.204;6.568;2022-10-17T16:28:47;4.55;;;3.00;;
53533;SDS011;39421;53.204;6.568;2022-10-17T16:31:18;5.47;;;3.13;;
53533;SDS011;39421;53.204;6.568;2022-10-17T16:33:49;5.25;;;2.78;;
53533;SDS011;39421;53.204;6.568;2022-10-17T16:36:16;4.40;;;2.93;;
53533;SDS011;39421;53.204;6.568;2022-10-17T16:38:43;4.40;;;3.08;;
53533;SDS011;39421;53.204;6.568;2022-10-17T16:41:13;5.38;;;3.10;;
53533;SDS011;39421;53.204;6.568;2022-10-17T16:43:47;5.38;;;3.03;;
53533;SDS011;39421;53.204;6.568;2022-10-17T16:46:14;4.97;;;3.30;;